sensor_id;sensor_type;location;lat;lon;timestamp;P1;durP1;ratioP1;P2;durP2;ratioP2
49153;SDS011;49455;52.252;9.124;2023-03-05T00:00:37;21.50;;;4.20;;
49153;SDS011;49455;52.252;9.124;2023-03-05T00:05:37;20.63;;;3.57;;
49153;SDS011;49455;52.252;9.124;2023-03-05T00:10:38;18.73;;;3.80;;
49153;SDS011;49455;52.252;9.124;2023-03-05T00:15:41;10.03;;;3.37;;
49153;SDS011;49455;52.252;9.124;2023-03-05T00:20:41;16.50;;;3.67;;
49153;SDS011;49455;52.252;9.124;2023-03-05T00:25:42;17.73;;;3.77;;
49153;SDS011;49455;52.252;9.124;2023-03-05T00:30:42;22.60;;;3.43;;
49153;SDS011;49455;52.252;9.124;2023-03-05T00:35:44;24.05;;;3.55;;
49153;SDS011;49455;52.252;9.124;2023-03-05T00:40:45;21.25;;;3.58;;
49153;SDS011;49455;52.252;9.124;2023-03-05T00:45:49;16.30;;;4.25;;
49153;SDS011;49455;52.252;9.124;2023-03-05T00:50:50;14.40;;;3.50;;
49153;SDS011;49455;52.252;9.124;2023-03-05T00:55:51;25.83;;;4.13;;
49153;SDS011;49455;52.252;9.124;2023-03-05T01:00:55;16.58;;;3.30;;
49153;SDS011;49455;52.252;9.124;2023-03-05T01:05:57;14.90;;;2.90;;
49153;SDS011;49455;52.252;9.124;2023-03-05T01:10:58;21.77;;;4.10;;
49153;SDS011;49455;52.252;9.124;2023-03-05T01:15:58;17.00;;;3.10;;
49153;SDS011;49455;52.252;9.124;2023-03-05T01:20:59;16.40;;;3.63;;
49153;SDS011;49455;52.252;9.124;2023-03-05T01:26:00;13.47;;;3.10;;
49153;SDS011;49455;52.252;9.124;2023-03-05T01:31:00;20.33;;;3.37;;
49153;SDS011;49455;52.252;9.124;2023-03-05T01:36:01;17.43;;;3.47;;
49153;SDS011;49455;52.252;9.124;2023-03-05T01:41:01;14.50;;;3.07;;
49153;SDS011;49455;52.252;9.124;2023-03-05T01:51:41;17.05;;;3.30;;
49153;SDS011;49455;52.252;9.124;2023-03-05T01:56:52;15.32;;;3.33;;
49153;SDS011;49455;52.252;9.124;2023-03-05T02:01:55;16.88;;;3.75;;
49153;SDS011;49455;52.252;9.124;2023-03-05T02:06:57;11.18;;;3.85;;
49153;SDS011;49455;52.252;9.124;2023-03-05T02:11:58;14.47;;;3.80;;
49153;SDS011;49455;52.252;9.124;2023-03-05T02:16:59;23.30;;;4.00;;
49153;SDS011;49455;52.252;9.124;2023-03-05T02:22:00;16.80;;;3.37;;
49153;SDS011;49455;52.252;9.124;2023-03-05T02:27:00;10.03;;;2.80;;
49153;SDS011;49455;52.252;9.124;2023-03-05T02:32:02;18.38;;;4.10;;
49153;SDS011;49455;52.252;9.124;2023-03-05T02:37:03;11.47;;;3.87;;
49153;SDS011;49455;52.252;9.124;2023-03-05T02:42:06;14.95;;;4.22;;
49153;SDS011;49455;52.252;9.124;2023-03-05T02:47:07;13.60;;;4.60;;
49153;SDS011;49455;52.252;9.124;2023-03-05T02:52:08;14.07;;;4.40;;
49153;SDS011;49455;52.252;9.124;2023-03-05T02:57:09;12.77;;;4.70;;
49153;SDS011;49455;52.252;9.124;2023-03-05T03:02:10;20.10;;;4.47;;
49153;SDS011;49455;52.252;9.124;2023-03-05T03:07:11;15.70;;;5.00;;
49153;SDS011;49455;52.252;9.124;2023-03-05T03:12:12;12.50;;;4.00;;
49153;SDS011;49455;52.252;9.124;2023-03-05T03:17:16;16.43;;;4.43;;
49153;SDS011;49455;52.252;9.124;2023-03-05T03:22:17;15.48;;;4.85;;
49153;SDS011;49455;52.252;9.124;2023-03-05T03:27:18;19.77;;;4.60;;
49153;SDS011;49455;52.252;9.124;2023-03-05T03:32:18;14.77;;;4.27;;
49153;SDS011;49455;52.252;9.124;2023-03-05T03:37:19;15.93;;;5.77;;
49153;SDS011;49455;52.252;9.124;2023-03-05T03:42:19;22.13;;;4.73;;
49153;SDS011;49455;52.252;9.124;2023-03-05T03:47:21;13.30;;;4.50;;
49153;SDS011;49455;52.252;9.124;2023-03-05T03:52:21;8.97;;;4.40;;
49153;SDS011;49455;52.252;9.124;2023-03-05T03:57:21;16.20;;;4.90;;
49153;SDS011;49455;52.252;9.124;2023-03-05T04:02:22;11.27;;;4.83;;
49153;SDS011;49455;52.252;9.124;2023-03-05T04:07:22;20.67;;;5.67;;
49153;SDS011;49455;52.252;9.124;2023-03-05T04:12:23;15.23;;;4.97;;
49153;SDS011;49455;52.252;9.124;2023-03-05T04:17:23;22.90;;;5.50;;
49153;SDS011;49455;52.252;9.124;2023-03-05T04:22:24;15.47;;;4.80;;
49153;SDS011;49455;52.252;9.124;2023-03-05T04:27:24;12.03;;;4.17;;
49153;SDS011;49455;52.252;9.124;2023-03-05T04:32:24;15.40;;;4.87;;
49153;SDS011;49455;52.252;9.124;2023-03-05T04:37:25;14.53;;;6.40;;
49153;SDS011;49455;52.252;9.124;2023-03-05T04:42:26;13.90;;;5.27;;
49153;SDS011;49455;52.252;9.124;2023-03-05T04:47:26;22.13;;;5.40;;
49153;SDS011;49455;52.252;9.124;2023-03-05T04:52:26;12.60;;;5.33;;
49153;SDS011;49455;52.252;9.124;2023-03-05T04:57:27;12.33;;;5.90;;
49153;SDS011;49455;52.252;9.124;2023-03-05T05:02:27;14.23;;;6.00;;
49153;SDS011;49455;52.252;9.124;2023-03-05T05:07:28;12.33;;;5.77;;
49153;SDS011;49455;52.252;9.124;2023-03-05T05:12:28;15.53;;;5.13;;
49153;SDS011;49455;52.252;9.124;2023-03-05T05:17:29;11.65;;;5.28;;
49153;SDS011;49455;52.252;9.124;2023-03-05T05:22:30;12.20;;;5.37;;
49153;SDS011;49455;52.252;9.124;2023-03-05T05:27:31;6.63;;;4.10;;
49153;SDS011;49455;52.252;9.124;2023-03-05T05:32:32;9.90;;;4.60;;
49153;SDS011;49455;52.252;9.124;2023-03-05T05:37:32;35.73;;;30.77;;
49153;SDS011;49455;52.252;9.124;2023-03-05T05:42:33;11.07;;;5.00;;
49153;SDS011;49455;52.252;9.124;2023-03-05T05:47:33;16.30;;;6.00;;
49153;SDS011;49455;52.252;9.124;2023-03-05T05:52:34;12.97;;;5.67;;
49153;SDS011;49455;52.252;9.124;2023-03-05T05:57:34;15.37;;;5.93;;
49153;SDS011;49455;52.252;9.124;2023-03-05T06:02:36;12.70;;;4.80;;
49153;SDS011;49455;52.252;9.124;2023-03-05T06:07:37;19.40;;;5.22;;
49153;SDS011;49455;52.252;9.124;2023-03-05T06:12:38;13.70;;;4.80;;
49153;SDS011;49455;52.252;9.124;2023-03-05T06:17:38;12.27;;;5.07;;
49153;SDS011;49455;52.252;9.124;2023-03-05T06:22:39;16.67;;;6.30;;
49153;SDS011;49455;52.252;9.124;2023-03-05T06:27:39;12.43;;;5.10;;
49153;SDS011;49455;52.252;9.124;2023-03-05T06:32:40;13.90;;;4.90;;
49153;SDS011;49455;52.252;9.124;2023-03-05T06:37:40;12.90;;;4.10;;
49153;SDS011;49455;52.252;9.124;2023-03-05T06:42:41;9.87;;;4.20;;
49153;SDS011;49455;52.252;9.124;2023-03-05T06:47:41;11.63;;;3.60;;
49153;SDS011;49455;52.252;9.124;2023-03-05T06:52:42;8.00;;;4.20;;
49153;SDS011;49455;52.252;9.124;2023-03-05T06:57:42;8.90;;;4.43;;
49153;SDS011;49455;52.252;9.124;2023-03-05T07:02:53;11.60;;;4.77;;
49153;SDS011;49455;52.252;9.124;2023-03-05T07:07:53;9.57;;;5.00;;
49153;SDS011;49455;52.252;9.124;2023-03-05T07:12:53;10.63;;;4.37;;
49153;SDS011;49455;52.252;9.124;2023-03-05T07:17:54;10.43;;;5.53;;
49153;SDS011;49455;52.252;9.124;2023-03-05T07:22:54;9.43;;;5.40;;
49153;SDS011;49455;52.252;9.124;2023-03-05T07:27:55;11.70;;;5.23;;
49153;SDS011;49455;52.252;9.124;2023-03-05T07:32:55;15.83;;;6.80;;
49153;SDS011;49455;52.252;9.124;2023-03-05T07:37:56;14.53;;;7.67;;
49153;SDS011;49455;52.252;9.124;2023-03-05T07:42:56;15.10;;;6.37;;
49153;SDS011;49455;52.252;9.124;2023-03-05T07:48:03;14.63;;;5.88;;
49153;SDS011;49455;52.252;9.124;2023-03-05T07:53:04;11.93;;;5.90;;
49153;SDS011;49455;52.252;9.124;2023-03-05T07:58:05;17.95;;;7.70;;
49153;SDS011;49455;52.252;9.124;2023-03-05T08:03:05;16.73;;;5.97;;
49153;SDS011;49455;52.252;9.124;2023-03-05T08:13:15;15.35;;;5.43;;
49153;SDS011;49455;52.252;9.124;2023-03-05T08:18:15;13.10;;;5.50;;
49153;SDS011;49455;52.252;9.124;2023-03-05T08:23:15;18.20;;;6.07;;
49153;SDS011;49455;52.252;9.124;2023-03-05T08:28:16;11.50;;;5.57;;
49153;SDS011;49455;52.252;9.124;2023-03-05T08:33:16;10.73;;;5.60;;
49153;SDS011;49455;52.252;9.124;2023-03-05T08:38:17;16.33;;;5.83;;
49153;SDS011;49455;52.252;9.124;2023-03-05T08:43:18;15.53;;;5.83;;
49153;SDS011;49455;52.252;9.124;2023-03-05T08:48:19;15.27;;;5.20;;
49153;SDS011;49455;52.252;9.124;2023-03-05T08:53:19;12.70;;;4.90;;
49153;SDS011;49455;52.252;9.124;2023-03-05T08:58:20;12.10;;;4.53;;
49153;SDS011;49455;52.252;9.124;2023-03-05T09:03:20;8.63;;;4.17;;
49153;SDS011;49455;52.252;9.124;2023-03-05T09:08:20;11.63;;;4.17;;
49153;SDS011;49455;52.252;9.124;2023-03-05T09:13:21;10.87;;;4.00;;
49153;SDS011;49455;52.252;9.124;2023-03-05T09:18:22;10.57;;;3.13;;
49153;SDS011;49455;52.252;9.124;2023-03-05T09:23:22;7.20;;;3.10;;
49153;SDS011;49455;52.252;9.124;2023-03-05T09:28:23;7.40;;;3.53;;
49153;SDS011;49455;52.252;9.124;2023-03-05T09:33:23;14.93;;;4.33;;
49153;SDS011;49455;52.252;9.124;2023-03-05T09:38:24;14.77;;;3.33;;
49153;SDS011;49455;52.252;9.124;2023-03-05T09:43:30;9.10;;;3.45;;
49153;SDS011;49455;52.252;9.124;2023-03-05T09:48:41;9.27;;;3.50;;
49153;SDS011;49455;52.252;9.124;2023-03-05T09:54:19;8.30;;;2.50;;
49153;SDS011;49455;52.252;9.124;2023-03-05T10:04:28;8.13;;;4.70;;
49153;SDS011;49455;52.252;9.124;2023-03-05T10:14:56;7.63;;;2.80;;
49153;SDS011;49455;52.252;9.124;2023-03-05T10:35:50;8.10;;;2.63;;
49153;SDS011;49455;52.252;9.124;2023-03-05T10:41:06;5.85;;;1.60;;
49153;SDS011;49455;52.252;9.124;2023-03-05T10:46:16;4.38;;;1.58;;
49153;SDS011;49455;52.252;9.124;2023-03-05T10:56:28;7.18;;;1.80;;
49153;SDS011;49455;52.252;9.124;2023-03-05T11:01:29;6.87;;;2.13;;
49153;SDS011;49455;52.252;9.124;2023-03-05T11:11:37;6.40;;;2.40;;
49153;SDS011;49455;52.252;9.124;2023-03-05T11:16:46;6.13;;;1.65;;
49153;SDS011;49455;52.252;9.124;2023-03-05T11:22:05;7.88;;;1.80;;
49153;SDS011;49455;52.252;9.124;2023-03-05T11:32:34;7.40;;;1.60;;
49153;SDS011;49455;52.252;9.124;2023-03-05T11:37:34;6.60;;;1.95;;
49153;SDS011;49455;52.252;9.124;2023-03-05T11:42:36;5.90;;;1.98;;
49153;SDS011;49455;52.252;9.124;2023-03-05T11:47:48;4.95;;;1.70;;
49153;SDS011;49455;52.252;9.124;2023-03-05T11:52:53;2.30;;;0.90;;
49153;SDS011;49455;52.252;9.124;2023-03-05T12:03:08;4.57;;;2.55;;
49153;SDS011;49455;52.252;9.124;2023-03-05T12:08:13;3.75;;;2.03;;
49153;SDS011;49455;52.252;9.124;2023-03-05T12:18:31;4.80;;;1.40;;
49153;SDS011;49455;52.252;9.124;2023-03-05T12:23:48;2.85;;;1.10;;
49153;SDS011;49455;52.252;9.124;2023-03-05T12:33:54;3.17;;;1.05;;
49153;SDS011;49455;52.252;9.124;2023-03-05T12:38:55;4.68;;;1.20;;
49153;SDS011;49455;52.252;9.124;2023-03-05T12:54:22;4.90;;;1.15;;
49153;SDS011;49455;52.252;9.124;2023-03-05T12:59:27;4.13;;;2.25;;
49153;SDS011;49455;52.252;9.124;2023-03-05T13:04:34;7.05;;;2.20;;
49153;SDS011;49455;52.252;9.124;2023-03-05T13:09:56;6.35;;;2.05;;
49153;SDS011;49455;52.252;9.124;2023-03-05T13:15:05;2.33;;;1.15;;
49153;SDS011;49455;52.252;9.124;2023-03-05T13:25:22;4.32;;;2.10;;
49153;SDS011;49455;52.252;9.124;2023-03-05T13:30:24;6.43;;;2.20;;
49153;SDS011;49455;52.252;9.124;2023-03-05T13:35:26;4.57;;;1.90;;
49153;SDS011;49455;52.252;9.124;2023-03-05T13:40:28;5.07;;;2.05;;
49153;SDS011;49455;52.252;9.124;2023-03-05T13:45:30;4.25;;;2.22;;
49153;SDS011;49455;52.252;9.124;2023-03-05T13:50:32;8.55;;;2.20;;
49153;SDS011;49455;52.252;9.124;2023-03-05T13:55:34;8.25;;;1.70;;
49153;SDS011;49455;52.252;9.124;2023-03-05T14:00:36;3.30;;;1.30;;
49153;SDS011;49455;52.252;9.124;2023-03-05T14:05:41;2.95;;;1.30;;
49153;SDS011;49455;52.252;9.124;2023-03-05T14:10:42;2.67;;;1.55;;
49153;SDS011;49455;52.252;9.124;2023-03-05T14:15:43;3.72;;;2.25;;
49153;SDS011;49455;52.252;9.124;2023-03-05T14:21:06;8.00;;;1.60;;
49153;SDS011;49455;52.252;9.124;2023-03-05T14:26:22;5.80;;;1.55;;
49153;SDS011;49455;52.252;9.124;2023-03-05T14:31:35;4.15;;;1.55;;
49153;SDS011;49455;52.252;9.124;2023-03-05T14:36:46;5.80;;;1.63;;
49153;SDS011;49455;52.252;9.124;2023-03-05T14:41:48;4.78;;;1.98;;
49153;SDS011;49455;52.252;9.124;2023-03-05T14:46:49;3.88;;;1.98;;
49153;SDS011;49455;52.252;9.124;2023-03-05T14:51:49;3.35;;;1.33;;
49153;SDS011;49455;52.252;9.124;2023-03-05T14:56:49;6.00;;;1.50;;
49153;SDS011;49455;52.252;9.124;2023-03-05T15:01:50;5.25;;;1.25;;
49153;SDS011;49455;52.252;9.124;2023-03-05T15:06:51;3.50;;;1.45;;
49153;SDS011;49455;52.252;9.124;2023-03-05T15:11:51;6.43;;;1.88;;
49153;SDS011;49455;52.252;9.124;2023-03-05T15:16:52;3.53;;;1.20;;
49153;SDS011;49455;52.252;9.124;2023-03-05T15:21:52;4.65;;;1.42;;
49153;SDS011;49455;52.252;9.124;2023-03-05T15:26:52;7.88;;;2.08;;
49153;SDS011;49455;52.252;9.124;2023-03-05T15:31:53;3.47;;;1.60;;
49153;SDS011;49455;52.252;9.124;2023-03-05T15:36:53;5.90;;;1.73;;
49153;SDS011;49455;52.252;9.124;2023-03-05T15:41:54;5.23;;;1.80;;
49153;SDS011;49455;52.252;9.124;2023-03-05T15:46:55;6.07;;;2.08;;
49153;SDS011;49455;52.252;9.124;2023-03-05T15:51:55;6.13;;;1.98;;
49153;SDS011;49455;52.252;9.124;2023-03-05T15:56:56;9.32;;;4.97;;
49153;SDS011;49455;52.252;9.124;2023-03-05T16:01:56;5.57;;;3.20;;
49153;SDS011;49455;52.252;9.124;2023-03-05T16:06:57;6.95;;;3.17;;
49153;SDS011;49455;52.252;9.124;2023-03-05T16:11:59;6.13;;;2.90;;
49153;SDS011;49455;52.252;9.124;2023-03-05T16:17:01;4.10;;;2.30;;
49153;SDS011;49455;52.252;9.124;2023-03-05T16:22:02;7.13;;;3.17;;
49153;SDS011;49455;52.252;9.124;2023-03-05T16:27:03;4.05;;;2.03;;
49153;SDS011;49455;52.252;9.124;2023-03-05T16:32:04;5.88;;;1.60;;
49153;SDS011;49455;52.252;9.124;2023-03-05T16:37:05;4.07;;;1.93;;
49153;SDS011;49455;52.252;9.124;2023-03-05T16:42:05;6.43;;;2.33;;
49153;SDS011;49455;52.252;9.124;2023-03-05T16:47:05;5.45;;;2.45;;
49153;SDS011;49455;52.252;9.124;2023-03-05T16:52:06;7.35;;;1.80;;
49153;SDS011;49455;52.252;9.124;2023-03-05T16:57:07;9.10;;;3.40;;
49153;SDS011;49455;52.252;9.124;2023-03-05T17:02:08;13.07;;;6.63;;
49153;SDS011;49455;52.252;9.124;2023-03-05T17:07:08;12.13;;;5.93;;
49153;SDS011;49455;52.252;9.124;2023-03-05T17:12:09;14.50;;;3.88;;
49153;SDS011;49455;52.252;9.124;2023-03-05T17:17:09;10.45;;;4.40;;
49153;SDS011;49455;52.252;9.124;2023-03-05T17:22:10;7.10;;;3.78;;
49153;SDS011;49455;52.252;9.124;2023-03-05T17:27:13;8.35;;;3.20;;
49153;SDS011;49455;52.252;9.124;2023-03-05T17:32:14;7.80;;;2.53;;
49153;SDS011;49455;52.252;9.124;2023-03-05T17:37:14;10.15;;;3.88;;
49153;SDS011;49455;52.252;9.124;2023-03-05T17:42:15;8.90;;;3.40;;
49153;SDS011;49455;52.252;9.124;2023-03-05T17:47:15;7.57;;;2.28;;
49153;SDS011;49455;52.252;9.124;2023-03-05T17:52:15;7.50;;;3.53;;
49153;SDS011;49455;52.252;9.124;2023-03-05T17:57:16;8.63;;;2.60;;
49153;SDS011;49455;52.252;9.124;2023-03-05T18:02:16;11.32;;;3.03;;
49153;SDS011;49455;52.252;9.124;2023-03-05T18:07:17;9.95;;;4.00;;
49153;SDS011;49455;52.252;9.124;2023-03-05T18:12:17;8.40;;;3.30;;
49153;SDS011;49455;52.252;9.124;2023-03-05T18:17:17;7.40;;;2.97;;
49153;SDS011;49455;52.252;9.124;2023-03-05T18:22:18;7.30;;;2.60;;
49153;SDS011;49455;52.252;9.124;2023-03-05T18:27:18;7.70;;;2.70;;
49153;SDS011;49455;52.252;9.124;2023-03-05T18:32:22;8.73;;;3.00;;
49153;SDS011;49455;52.252;9.124;2023-03-05T18:37:23;10.88;;;3.75;;
49153;SDS011;49455;52.252;9.124;2023-03-05T18:42:23;9.77;;;2.83;;
49153;SDS011;49455;52.252;9.124;2023-03-05T18:47:23;16.33;;;4.07;;
49153;SDS011;49455;52.252;9.124;2023-03-05T18:52:26;11.35;;;4.78;;
49153;SDS011;49455;52.252;9.124;2023-03-05T18:57:37;9.85;;;3.22;;
49153;SDS011;49455;52.252;9.124;2023-03-05T19:02:37;11.43;;;3.83;;
49153;SDS011;49455;52.252;9.124;2023-03-05T19:07:38;10.60;;;4.20;;
49153;SDS011;49455;52.252;9.124;2023-03-05T19:12:39;17.60;;;7.10;;
49153;SDS011;49455;52.252;9.124;2023-03-05T19:17:39;11.07;;;4.00;;
49153;SDS011;49455;52.252;9.124;2023-03-05T19:22:40;7.70;;;2.93;;
49153;SDS011;49455;52.252;9.124;2023-03-05T19:27:41;7.07;;;3.53;;
49153;SDS011;49455;52.252;9.124;2023-03-05T19:32:42;7.83;;;3.60;;
49153;SDS011;49455;52.252;9.124;2023-03-05T19:37:42;8.63;;;3.03;;
49153;SDS011;49455;52.252;9.124;2023-03-05T19:42:43;9.23;;;2.73;;
49153;SDS011;49455;52.252;9.124;2023-03-05T19:47:46;7.33;;;2.23;;
49153;SDS011;49455;52.252;9.124;2023-03-05T19:52:46;7.10;;;3.08;;
49153;SDS011;49455;52.252;9.124;2023-03-05T19:57:47;9.37;;;3.53;;
49153;SDS011;49455;52.252;9.124;2023-03-05T20:02:47;7.93;;;3.67;;
49153;SDS011;49455;52.252;9.124;2023-03-05T20:07:48;11.50;;;3.67;;
49153;SDS011;49455;52.252;9.124;2023-03-05T20:12:48;8.90;;;4.07;;
49153;SDS011;49455;52.252;9.124;2023-03-05T20:17:50;11.37;;;3.73;;
49153;SDS011;49455;52.252;9.124;2023-03-05T20:22:52;6.75;;;3.17;;
49153;SDS011;49455;52.252;9.124;2023-03-05T20:27:52;14.67;;;3.23;;
49153;SDS011;49455;52.252;9.124;2023-03-05T20:32:52;9.00;;;3.53;;
49153;SDS011;49455;52.252;9.124;2023-03-05T20:37:55;5.47;;;3.17;;
49153;SDS011;49455;52.252;9.124;2023-03-05T20:42:57;5.40;;;2.65;;
49153;SDS011;49455;52.252;9.124;2023-03-05T20:47:57;5.80;;;2.60;;
49153;SDS011;49455;52.252;9.124;2023-03-05T20:52:58;5.53;;;2.67;;
49153;SDS011;49455;52.252;9.124;2023-03-05T20:57:59;5.33;;;3.10;;
49153;SDS011;49455;52.252;9.124;2023-03-05T21:02:59;19.57;;;9.10;;
49153;SDS011;49455;52.252;9.124;2023-03-05T21:08:00;14.80;;;5.97;;
49153;SDS011;49455;52.252;9.124;2023-03-05T21:13:01;15.23;;;7.93;;
49153;SDS011;49455;52.252;9.124;2023-03-05T21:18:02;10.63;;;3.73;;
49153;SDS011;49455;52.252;9.124;2023-03-05T21:23:02;4.87;;;2.80;;
49153;SDS011;49455;52.252;9.124;2023-03-05T21:28:04;6.63;;;3.00;;
49153;SDS011;49455;52.252;9.124;2023-03-05T21:33:07;8.50;;;2.78;;
49153;SDS011;49455;52.252;9.124;2023-03-05T21:38:09;6.47;;;2.95;;
49153;SDS011;49455;52.252;9.124;2023-03-05T21:43:11;5.65;;;2.60;;
49153;SDS011;49455;52.252;9.124;2023-03-05T21:48:13;8.13;;;3.10;;
49153;SDS011;49455;52.252;9.124;2023-03-05T21:53:14;7.38;;;3.00;;
49153;SDS011;49455;52.252;9.124;2023-03-05T21:58:18;8.15;;;2.90;;
49153;SDS011;49455;52.252;9.124;2023-03-05T22:03:18;6.57;;;2.50;;
49153;SDS011;49455;52.252;9.124;2023-03-05T22:08:19;10.67;;;2.50;;
49153;SDS011;49455;52.252;9.124;2023-03-05T22:13:20;8.13;;;2.50;;
49153;SDS011;49455;52.252;9.124;2023-03-05T22:18:22;8.37;;;3.00;;
49153;SDS011;49455;52.252;9.124;2023-03-05T22:23:25;7.75;;;2.70;;
49153;SDS011;49455;52.252;9.124;2023-03-05T22:28:27;7.57;;;2.67;;
49153;SDS011;49455;52.252;9.124;2023-03-05T22:33:28;5.03;;;2.87;;
49153;SDS011;49455;52.252;9.124;2023-03-05T22:38:28;8.17;;;3.60;;
49153;SDS011;49455;52.252;9.124;2023-03-05T22:43:28;8.40;;;3.77;;
49153;SDS011;49455;52.252;9.124;2023-03-05T22:48:29;9.03;;;3.90;;
49153;SDS011;49455;52.252;9.124;2023-03-05T22:53:30;9.67;;;3.27;;
49153;SDS011;49455;52.252;9.124;2023-03-05T22:58:30;10.90;;;3.17;;
49153;SDS011;49455;52.252;9.124;2023-03-05T23:03:31;5.10;;;2.90;;
49153;SDS011;49455;52.252;9.124;2023-03-05T23:08:31;5.47;;;3.13;;
49153;SDS011;49455;52.252;9.124;2023-03-05T23:13:32;6.57;;;3.37;;
49153;SDS011;49455;52.252;9.124;2023-03-05T23:18:32;12.13;;;3.97;;
49153;SDS011;49455;52.252;9.124;2023-03-05T23:23:33;7.87;;;3.30;;
49153;SDS011;49455;52.252;9.124;2023-03-05T23:28:33;7.50;;;3.60;;
49153;SDS011;49455;52.252;9.124;2023-03-05T23:33:33;8.77;;;3.73;;
49153;SDS011;49455;52.252;9.124;2023-03-05T23:38:34;6.40;;;3.73;;
49153;SDS011;49455;52.252;9.124;2023-03-05T23:43:34;7.57;;;3.83;;
49153;SDS011;49455;52.252;9.124;2023-03-05T23:48:35;7.53;;;3.77;;
49153;SDS011;49455;52.252;9.124;2023-03-05T23:53:35;7.47;;;3.60;;
49153;SDS011;49455;52.252;9.124;2023-03-05T23:58:36;11.00;;;3.90;;
